createdAt,value
2023-02-06T00:00:00.145Z,3.72
2023-02-06T00:03:06.624Z,3.83
2023-02-06T00:06:09.514Z,4.03
2023-02-06T00:09:12.256Z,3.90
2023-02-06T00:12:15.114Z,4.43
2023-02-06T00:15:18.256Z,3.83
2023-02-06T00:18:21.087Z,3.87
2023-02-06T00:21:26.243Z,4.25
2023-02-06T00:24:29.042Z,4.30
2023-02-06T00:27:31.850Z,4.18
2023-02-06T00:30:36.147Z,4.30
2023-02-06T00:33:39.175Z,3.43
2023-02-06T00:36:42.019Z,3.55
2023-02-06T00:39:44.800Z,3.90
2023-02-06T00:42:47.644Z,3.70
2023-02-06T00:45:54.581Z,4.45
2023-02-06T00:48:57.759Z,3.57
2023-02-06T00:52:00.842Z,3.60
2023-02-06T00:55:03.780Z,4.15
2023-02-06T00:58:06.729Z,4.00
2023-02-06T01:01:09.788Z,4.03
2023-02-06T01:04:12.846Z,4.10
2023-02-06T01:07:15.584Z,3.88
2023-02-06T01:10:20.307Z,3.72
2023-02-06T01:13:23.439Z,3.95
2023-02-06T01:16:26.283Z,3.75
2023-02-06T01:19:29.471Z,3.80
2023-02-06T01:22:34.934Z,4.00
2023-02-06T01:25:37.982Z,4.35
2023-02-06T01:28:44.024Z,3.75
2023-02-06T01:31:47.053Z,3.55
2023-02-06T01:34:49.926Z,3.60
2023-02-06T01:37:53.507Z,3.45
2023-02-06T01:40:58.021Z,3.40
2023-02-06T01:44:16.872Z,3.58
2023-02-06T01:47:19.740Z,3.85
2023-02-06T01:50:23.984Z,3.70
2023-02-06T01:53:27.175Z,3.90
2023-02-06T01:56:34.348Z,3.90
2023-02-06T01:59:39.793Z,3.60
2023-02-06T02:02:48.518Z,3.58
2023-02-06T02:05:51.811Z,3.47
2023-02-06T02:08:58.313Z,3.60
2023-02-06T02:12:02.187Z,4.07
2023-02-06T02:15:05.537Z,4.07
2023-02-06T02:18:25.380Z,3.33
2023-02-06T02:21:39.896Z,3.73
2023-02-06T02:25:01.065Z,3.75
2023-02-06T02:28:19.872Z,3.50
2023-02-06T02:31:49.632Z,3.58
2023-02-06T02:35:13.149Z,3.72
2023-02-06T02:38:37.101Z,3.70
2023-02-06T02:42:15.368Z,4.15
2023-02-06T02:45:34.227Z,4.15
2023-02-06T02:48:42.296Z,3.42
2023-02-06T02:51:48.226Z,3.95
2023-02-06T02:54:51.104Z,3.67
2023-02-06T02:58:03.818Z,3.53
2023-02-06T03:01:13.576Z,3.30
2023-02-06T03:04:21.266Z,3.78
2023-02-06T03:08:21.615Z,3.28
2023-02-06T03:11:24.778Z,3.00
2023-02-06T03:14:40.846Z,3.45
2023-02-06T03:18:13.323Z,3.42
2023-02-06T03:21:20.182Z,4.30
2023-02-06T03:24:26.311Z,3.50
2023-02-06T03:27:31.399Z,3.57
2023-02-06T03:30:35.499Z,3.55
2023-02-06T03:33:48.626Z,3.60
2023-02-06T03:36:52.322Z,3.53
2023-02-06T03:40:05.465Z,3.47
2023-02-06T03:43:18.901Z,3.70
2023-02-06T03:46:24.772Z,3.45
2023-02-06T03:49:31.944Z,3.97
2023-02-06T03:52:41.456Z,3.88
2023-02-06T03:55:47.519Z,3.60
2023-02-06T03:58:50.381Z,3.63
2023-02-06T04:01:56.735Z,3.10
2023-02-06T04:04:59.486Z,4.05
2023-02-06T04:08:02.273Z,3.05
2023-02-06T04:11:05.055Z,4.03
2023-02-06T04:14:07.880Z,3.53
2023-02-06T04:17:11.537Z,3.60
2023-02-06T04:20:14.843Z,3.53
2023-02-06T04:23:19.877Z,3.60
2023-02-06T04:26:22.635Z,3.20
2023-02-06T04:29:26.144Z,3.20
2023-02-06T04:32:28.996Z,3.38
2023-02-06T04:35:31.767Z,3.53
2023-02-06T04:38:34.576Z,3.40
2023-02-06T04:41:37.313Z,3.65
2023-02-06T04:44:40.118Z,3.37
2023-02-06T04:47:43.076Z,3.30
2023-02-06T04:50:46.628Z,3.60
2023-02-06T04:53:49.459Z,3.50
2023-02-06T04:56:52.351Z,3.60
2023-02-06T04:59:57.847Z,3.50
2023-02-06T05:03:00.898Z,3.50
2023-02-06T05:06:04.791Z,3.53
2023-02-06T05:09:10.520Z,3.70
2023-02-06T05:12:14.390Z,3.97
2023-02-06T05:15:17.994Z,2.90
2023-02-06T05:18:20.824Z,3.50
2023-02-06T05:21:24.682Z,4.05
2023-02-06T05:24:27.944Z,3.75
2023-02-06T05:27:30.834Z,3.60
2023-02-06T05:30:38.122Z,3.80
2023-02-06T05:33:52.596Z,3.22
2023-02-06T05:36:55.469Z,3.53
2023-02-06T05:39:59.960Z,3.50
2023-02-06T05:43:03.212Z,3.47
2023-02-06T05:46:06.093Z,3.80
2023-02-06T05:49:09.145Z,3.17
2023-02-06T05:52:12.100Z,3.53
2023-02-06T05:55:17.070Z,3.72
2023-02-06T05:58:20.140Z,3.25
2023-02-06T06:01:23.056Z,3.40
2023-02-06T06:04:26.523Z,3.95
2023-02-06T06:07:29.284Z,3.20
2023-02-06T06:10:32.275Z,3.47
2023-02-06T06:13:35.171Z,3.80
2023-02-06T06:16:38.249Z,3.63
2023-02-06T06:19:41.049Z,3.40
2023-02-06T06:22:43.903Z,3.40
2023-02-06T06:25:48.118Z,4.20
2023-02-06T06:28:51.155Z,3.80
2023-02-06T06:31:56.995Z,3.50
2023-02-06T06:34:59.959Z,3.65
2023-02-06T06:38:02.801Z,3.80
2023-02-06T06:41:06.596Z,3.83
2023-02-06T06:44:09.872Z,3.72
2023-02-06T06:47:12.603Z,3.23
2023-02-06T06:50:15.750Z,4.00
2023-02-06T06:53:18.921Z,3.75
2023-02-06T06:56:21.710Z,3.25
2023-02-06T06:59:24.605Z,3.35
2023-02-06T07:02:28.757Z,3.83
2023-02-06T07:05:34.519Z,3.83
2023-02-06T07:08:42.151Z,4.07
2023-02-06T07:11:45.383Z,4.10
2023-02-06T07:14:48.204Z,3.83
2023-02-06T07:17:50.992Z,3.90
2023-02-06T07:20:53.786Z,4.03
2023-02-06T07:23:56.639Z,4.13
2023-02-06T07:26:59.423Z,4.00
2023-02-06T07:30:02.321Z,4.72
2023-02-06T07:33:08.756Z,4.27
2023-02-06T07:36:12.992Z,3.78
2023-02-06T07:39:16.824Z,4.50
2023-02-06T07:42:20.101Z,3.85
2023-02-06T07:45:38.913Z,4.30
2023-02-06T07:48:42.666Z,4.00
2023-02-06T07:52:23.684Z,4.30
2023-02-06T07:55:27.111Z,4.40
2023-02-06T07:58:30.008Z,4.05
2023-02-06T08:01:33.847Z,4.00
2023-02-06T08:04:37.532Z,4.17
2023-02-06T08:07:40.708Z,3.90
2023-02-06T08:10:43.728Z,4.13
2023-02-06T08:13:48.204Z,4.28
2023-02-06T08:16:51.731Z,4.38
2023-02-06T08:19:54.717Z,4.07
2023-02-06T08:23:02.279Z,4.55
2023-02-06T08:26:09.590Z,4.30
2023-02-06T08:29:14.560Z,4.35
2023-02-06T08:32:17.397Z,4.68
2023-02-06T08:35:20.304Z,4.37
2023-02-06T08:38:23.064Z,4.75
2023-02-06T08:41:37.917Z,4.60
2023-02-06T08:44:43.652Z,4.38
2023-02-06T08:47:46.659Z,4.57
2023-02-06T08:50:51.238Z,4.50
2023-02-06T08:53:58.751Z,5.40
2023-02-06T08:57:02.931Z,4.70
2023-02-06T09:00:09.096Z,4.85
2023-02-06T09:03:12.677Z,5.05
2023-02-06T09:06:18.510Z,4.90
2023-02-06T09:09:21.417Z,5.28
2023-02-06T09:12:24.815Z,6.03
2023-02-06T09:15:27.990Z,5.25
2023-02-06T09:18:31.164Z,5.25
2023-02-06T09:21:35.768Z,4.90
2023-02-06T09:24:43.680Z,4.60
2023-02-06T09:27:47.398Z,5.00
2023-02-06T09:30:50.973Z,5.10
2023-02-06T09:33:54.307Z,4.82
2023-02-06T09:36:58.045Z,4.77
2023-02-06T09:40:06.006Z,5.15
2023-02-06T09:43:14.316Z,5.80
2023-02-06T09:46:21.479Z,5.00
2023-02-06T09:49:52.820Z,5.40
2023-02-06T09:53:01.840Z,4.97
2023-02-06T09:56:29.257Z,5.03
2023-02-06T09:59:45.248Z,4.82
2023-02-06T10:03:17.282Z,5.07
2023-02-06T10:06:32.173Z,5.30
2023-02-06T10:09:43.388Z,4.97
2023-02-06T10:13:10.277Z,5.10
2023-02-06T10:16:19.023Z,5.00
2023-02-06T10:19:46.891Z,5.10
2023-02-06T10:23:20.160Z,4.90
2023-02-06T10:26:23.604Z,4.90
2023-02-06T10:29:30.291Z,4.85
2023-02-06T10:32:40.444Z,4.47
2023-02-06T10:35:59.121Z,4.22
2023-02-06T10:39:13.702Z,4.30
2023-02-06T10:42:29.219Z,4.67
2023-02-06T10:45:46.904Z,4.50
2023-02-06T10:49:00.970Z,4.97
2023-02-06T10:52:18.170Z,3.92
2023-02-06T10:55:28.266Z,4.32
2023-02-06T10:58:56.416Z,3.73
2023-02-06T11:02:08.236Z,4.70
2023-02-06T11:05:21.103Z,4.03
2023-02-06T11:08:33.075Z,3.85
2023-02-06T11:11:48.606Z,4.22
2023-02-06T11:15:32.908Z,4.03
2023-02-06T11:18:39.919Z,3.53
2023-02-06T11:21:55.524Z,3.88
2023-02-06T11:25:06.185Z,4.15
2023-02-06T11:28:20.853Z,3.92
2023-02-06T11:31:45.639Z,3.90
2023-02-06T11:35:00.135Z,3.90
2023-02-06T11:38:24.971Z,4.55
2023-02-06T11:41:28.984Z,4.60
2023-02-06T11:44:40.282Z,4.15
2023-02-06T11:47:43.034Z,3.87
2023-02-06T11:50:55.125Z,4.10
2023-02-06T11:54:03.773Z,3.85
2023-02-06T11:57:19.891Z,3.75
2023-02-06T12:00:23.533Z,3.80
2023-02-06T12:03:33.431Z,3.90
2023-02-06T12:06:40.479Z,4.00
2023-02-06T12:09:43.541Z,4.22
2023-02-06T12:12:56.544Z,3.70
2023-02-06T12:16:02.223Z,4.38
2023-02-06T12:19:24.148Z,3.53
2023-02-06T12:22:33.484Z,4.28
2023-02-06T12:25:49.623Z,4.05
2023-02-06T12:29:07.205Z,3.78
2023-02-06T12:32:28.752Z,3.78
2023-02-06T12:35:52.270Z,4.10
2023-02-06T12:39:14.925Z,3.83
2023-02-06T12:42:39.196Z,4.22
2023-02-06T12:46:04.526Z,4.32
2023-02-06T12:49:15.898Z,3.92
2023-02-06T12:52:18.790Z,3.73
2023-02-06T12:55:21.794Z,4.07
2023-02-06T12:58:57.358Z,4.60
2023-02-06T13:02:28.169Z,3.97
2023-02-06T13:05:44.305Z,3.85
2023-02-06T13:08:58.959Z,4.03
2023-02-06T13:12:08.165Z,3.60
2023-02-06T13:15:26.170Z,4.03
2023-02-06T13:19:01.356Z,4.38
2023-02-06T13:22:10.897Z,3.30
2023-02-06T13:25:25.969Z,4.10
2023-02-06T13:28:28.952Z,4.03
2023-02-06T13:31:34.606Z,3.97
2023-02-06T13:34:46.970Z,4.32
2023-02-06T13:37:51.086Z,4.13
2023-02-06T13:41:12.824Z,4.33
2023-02-06T13:44:21.429Z,4.57
2023-02-06T13:47:48.203Z,4.22
2023-02-06T13:51:06.671Z,3.88
2023-02-06T13:54:12.011Z,4.40
2023-02-06T13:57:23.672Z,4.07
2023-02-06T14:00:30.536Z,3.90
2023-02-06T14:03:38.538Z,4.05
2023-02-06T14:06:44.137Z,4.20
2023-02-06T14:10:15.672Z,3.80
2023-02-06T14:13:34.416Z,3.90
2023-02-06T14:16:55.552Z,4.45
2023-02-06T14:20:30.364Z,4.47
2023-02-06T14:23:51.208Z,3.97
2023-02-06T14:27:32.182Z,3.92
2023-02-06T14:30:50.934Z,4.33
2023-02-06T14:34:05.736Z,4.20
2023-02-06T14:37:45.300Z,4.03
2023-02-06T14:40:53.871Z,4.00
2023-02-06T14:43:57.907Z,4.93
2023-02-06T14:47:00.872Z,4.73
2023-02-06T14:50:03.878Z,4.90
2023-02-06T14:53:22.571Z,5.70
2023-02-06T14:56:38.376Z,5.07
2023-02-06T14:59:58.481Z,5.30
2023-02-06T15:03:22.583Z,4.90
2023-02-06T15:06:28.357Z,5.00
2023-02-06T15:09:34.437Z,4.75
2023-02-06T15:12:38.527Z,5.97
2023-02-06T15:15:52.946Z,5.05
2023-02-06T15:19:16.358Z,6.33
2023-02-06T15:22:28.521Z,5.15
2023-02-06T15:25:42.167Z,5.13
2023-02-06T15:28:45.802Z,4.70
2023-02-06T15:31:54.837Z,5.05
2023-02-06T15:34:59.730Z,5.53
2023-02-06T15:38:08.383Z,5.20
2023-02-06T15:41:12.207Z,5.43
2023-02-06T15:44:28.459Z,4.82
2023-02-06T15:47:31.505Z,5.78
2023-02-06T15:50:35.277Z,5.23
2023-02-06T15:53:40.109Z,5.25
2023-02-06T15:56:43.813Z,5.05
2023-02-06T15:59:46.834Z,5.55
2023-02-06T16:02:52.683Z,5.40
2023-02-06T16:05:56.732Z,5.23
2023-02-06T16:09:03.046Z,4.63
2023-02-06T16:12:06.202Z,4.80
2023-02-06T16:15:33.893Z,5.72
2023-02-06T16:18:38.963Z,5.28
2023-02-06T16:21:43.653Z,5.03
2023-02-06T16:24:47.197Z,5.65
2023-02-06T16:27:51.454Z,5.50
2023-02-06T16:31:01.907Z,5.70
2023-02-06T16:34:32.186Z,5.63
2023-02-06T16:37:34.947Z,6.00
2023-02-06T16:40:39.049Z,5.65
2023-02-06T16:43:42.332Z,5.60
2023-02-06T16:46:46.617Z,5.15
2023-02-06T16:49:50.045Z,6.32
2023-02-06T16:52:55.670Z,6.20
2023-02-06T16:55:59.469Z,6.43
2023-02-06T16:59:02.330Z,6.13
2023-02-06T17:02:13.735Z,6.07
2023-02-06T17:05:17.073Z,6.72
2023-02-06T17:08:23.350Z,6.20
2023-02-06T17:11:26.764Z,6.15
2023-02-06T17:14:29.752Z,6.50
2023-02-06T17:17:33.389Z,6.47
2023-02-06T17:20:38.926Z,6.32
2023-02-06T17:23:46.246Z,7.37
2023-02-06T17:26:50.680Z,6.43
2023-02-06T17:29:53.968Z,7.88
2023-02-06T17:32:57.170Z,7.60
2023-02-06T17:36:00.983Z,7.55
2023-02-06T17:39:04.178Z,8.33
2023-02-06T17:42:08.812Z,8.35
2023-02-06T17:45:12.024Z,8.50
2023-02-06T17:48:15.436Z,9.10
2023-02-06T17:51:18.527Z,9.52
2023-02-06T17:54:22.085Z,9.10
2023-02-06T17:57:25.592Z,8.98
2023-02-06T18:00:29.255Z,9.73
2023-02-06T18:03:32.354Z,10.32
2023-02-06T18:06:37.629Z,10.68
2023-02-06T18:09:42.202Z,11.67
2023-02-06T18:12:45.679Z,11.80
2023-02-06T18:15:54.694Z,10.93
2023-02-06T18:18:59.500Z,10.57
2023-02-06T18:22:03.278Z,11.45
2023-02-06T18:25:09.094Z,10.53
2023-02-06T18:28:15.240Z,11.48
2023-02-06T18:31:26.737Z,10.40
2023-02-06T18:34:30.156Z,10.45
2023-02-06T18:37:36.887Z,10.65
2023-02-06T18:40:45.846Z,9.83
2023-02-06T18:43:49.777Z,10.77
2023-02-06T18:46:54.411Z,10.45
2023-02-06T18:49:58.741Z,9.88
2023-02-06T18:53:03.344Z,10.57
2023-02-06T18:56:07.720Z,9.63
2023-02-06T18:59:12.247Z,10.45
2023-02-06T19:02:19.159Z,10.73
2023-02-06T19:05:23.205Z,10.70
2023-02-06T19:08:28.674Z,11.10
2023-02-06T19:11:33.266Z,10.97
2023-02-06T19:14:39.361Z,11.25
2023-02-06T19:17:45.425Z,10.27
2023-02-06T19:20:49.989Z,10.98
2023-02-06T19:23:58.872Z,11.35
2023-02-06T19:27:03.770Z,10.23
2023-02-06T19:30:09.162Z,10.93
2023-02-06T19:33:16.982Z,11.15
2023-02-06T19:36:22.671Z,9.52
2023-02-06T19:39:27.127Z,11.07
2023-02-06T19:42:33.751Z,10.73
2023-02-06T19:45:39.830Z,10.32
2023-02-06T19:48:47.391Z,10.65
2023-02-06T19:51:53.420Z,9.45
2023-02-06T19:54:57.848Z,11.18
2023-02-06T19:58:20.487Z,10.47
2023-02-06T20:01:26.315Z,10.88
2023-02-06T20:04:38.665Z,10.43
2023-02-06T20:07:43.255Z,9.73
2023-02-06T20:10:49.178Z,10.70
2023-02-06T20:13:56.181Z,11.07
2023-02-06T20:17:01.716Z,10.77
2023-02-06T20:20:07.139Z,10.70
2023-02-06T20:23:13.517Z,10.00
2023-02-06T20:26:19.423Z,10.38
2023-02-06T20:29:30.245Z,10.43
2023-02-06T20:32:34.748Z,10.85
2023-02-06T20:35:45.391Z,10.43
2023-02-06T20:38:52.005Z,9.80
2023-02-06T20:41:56.479Z,10.85
2023-02-06T20:45:01.858Z,9.53
2023-02-06T20:48:07.556Z,9.60
2023-02-06T20:51:12.746Z,10.93
2023-02-06T20:54:18.232Z,9.48
2023-02-06T20:57:23.401Z,10.57
2023-02-06T21:00:27.194Z,9.43
2023-02-06T21:03:31.051Z,10.23
2023-02-06T21:06:37.122Z,9.77
2023-02-06T21:09:41.678Z,9.60
2023-02-06T21:12:46.118Z,9.55
2023-02-06T21:15:53.290Z,9.17
2023-02-06T21:18:57.668Z,9.77
2023-02-06T21:22:01.172Z,9.77
2023-02-06T21:25:05.410Z,9.30
2023-02-06T21:28:08.566Z,9.35
2023-02-06T21:31:17.755Z,9.50
2023-02-06T21:34:23.066Z,9.57
2023-02-06T21:37:25.976Z,9.80
2023-02-06T21:40:28.850Z,9.27
2023-02-06T21:43:32.019Z,9.73
2023-02-06T21:46:34.943Z,9.70
2023-02-06T21:49:37.863Z,9.38
2023-02-06T21:52:40.605Z,8.70
2023-02-06T21:55:44.895Z,9.40
2023-02-06T21:58:49.205Z,9.07
2023-02-06T22:01:54.625Z,9.43
2023-02-06T22:05:00.440Z,8.57
2023-02-06T22:08:03.569Z,9.35
2023-02-06T22:11:17.862Z,8.55
2023-02-06T22:14:20.605Z,9.00
2023-02-06T22:17:23.298Z,9.37
2023-02-06T22:20:26.284Z,9.95
2023-02-06T22:23:29.057Z,10.15
2023-02-06T22:26:33.992Z,8.95
2023-02-06T22:29:36.927Z,9.57
2023-02-06T22:32:40.587Z,8.70
2023-02-06T22:35:43.498Z,8.35
2023-02-06T22:38:48.360Z,9.48
2023-02-06T22:41:51.944Z,8.77
2023-02-06T22:44:54.954Z,9.10
2023-02-06T22:47:57.832Z,8.83
2023-02-06T22:54:30.495Z,8.15
2023-02-06T22:57:35.355Z,9.23
2023-02-06T23:00:38.833Z,9.20
2023-02-06T23:03:42.016Z,7.90
2023-02-06T23:06:45.567Z,8.73
2023-02-06T23:09:48.413Z,8.05
2023-02-06T23:12:51.242Z,7.97
2023-02-06T23:15:57.797Z,8.65
2023-02-06T23:19:04.248Z,8.43
2023-02-06T23:22:08.074Z,8.20
2023-02-06T23:25:10.773Z,9.57
2023-02-06T23:28:14.629Z,9.05
2023-02-06T23:31:17.936Z,8.13
2023-02-06T23:34:24.222Z,7.87
2023-02-06T23:37:26.996Z,8.07
2023-02-06T23:40:31.011Z,8.40
2023-02-06T23:43:34.824Z,8.45
2023-02-06T23:46:39.341Z,8.40
2023-02-06T23:49:42.208Z,8.40
2023-02-06T23:52:45.193Z,8.88
2023-02-06T23:55:48.067Z,7.80
2023-02-06T23:58:51.900Z,8.43
